Time;durP1;ratioP1;P1;durP2;ratioP2;P2;SDS_P1;SDS_P2;PMS_P1;PMS_P2;Temp;Humidity;BMP_temperature;BMP_pressure;BME280_temperature;BME280_humidity;BME280_pressure;Samples;Min_cycle;Max_cycle;Signal;HPM_P1;HPM_P2
2023/05/15 00:01:07;;;;;;;6.80;6.10;;;;;;;;;;5030053;28;20471;-44
2023/05/15 00:03:32;;;;;;;6.80;5.90;;;;;;;;;;5042519;28;20435;-43
2023/05/15 00:05:58;;;;;;;7.00;5.60;;;;;;;;;;5040009;28;20401;-44
2023/05/15 00:08:24;;;;;;;11.00;7.13;;;;;;;;;;5047948;28;20839;-44
2023/05/15 00:10:50;;;;;;;7.83;6.70;;;;;;;;;;5036544;28;20439;-43
2023/05/15 00:13:17;;;;;;;10.57;7.33;;;;;;;;;;5036192;28;20438;-44
2023/05/15 00:15:43;;;;;;;7.40;6.70;;;;;;;;;;5028664;28;20444;-43
2023/05/15 00:18:09;;;;;;;10.03;7.07;;;;;;;;;;5025955;28;20429;-44
2023/05/15 00:20:35;;;;;;;6.47;5.87;;;;;;;;;;5041424;28;20489;-44
2023/05/15 00:23:01;;;;;;;9.23;6.00;;;;;;;;;;5036101;28;20439;-43
2023/05/15 00:25:27;;;;;;;5.90;5.30;;;;;;;;;;5042173;28;20461;-43
2023/05/15 00:27:53;;;;;;;7.53;6.70;;;;;;;;;;5035531;28;20415;-44
2023/05/15 00:30:19;;;;;;;8.17;6.77;;;;;;;;;;5034967;28;20911;-43
2023/05/15 00:32:45;;;;;;;8.40;6.20;;;;;;;;;;5037078;28;20449;-44
2023/05/15 00:35:11;;;;;;;12.10;6.10;;;;;;;;;;5039791;28;20427;-43
2023/05/15 00:37:37;;;;;;;6.57;5.90;;;;;;;;;;5038562;28;20511;-44
2023/05/15 00:40:03;;;;;;;8.40;6.10;;;;;;;;;;5033439;28;20469;-44
2023/05/15 00:42:30;;;;;;;6.87;6.27;;;;;;;;;;5037522;28;20420;-44
2023/05/15 00:44:56;;;;;;;7.43;6.63;;;;;;;;;;5037260;28;20506;-43
2023/05/15 00:47:23;;;;;;;6.60;5.87;;;;;;;;;;5031696;28;20381;-44
2023/05/15 00:49:49;;;;;;;7.90;7.03;;;;;;;;;;5037846;28;20798;-44
2023/05/15 00:52:15;;;;;;;9.50;7.00;;;;;;;;;;5041001;28;20448;-44
2023/05/15 00:54:41;;;;;;;7.23;6.47;;;;;;;;;;5040073;28;20786;-43
2023/05/15 00:57:08;;;;;;;8.77;7.20;;;;;;;;;;5032614;28;20495;-43
2023/05/15 00:59:34;;;;;;;10.53;6.70;;;;;;;;;;5033245;28;20455;-43
2023/05/15 01:02:00;;;;;;;10.80;9.10;;;;;;;;;;5037174;28;20402;-44
2023/05/15 01:04:26;;;;;;;10.90;7.20;;;;;;;;;;5043758;28;20408;-43
2023/05/15 01:06:52;;;;;;;11.53;7.30;;;;;;;;;;5044044;28;20415;-43
2023/05/15 01:09:19;;;;;;;10.27;6.40;;;;;;;;;;5042831;28;20416;-43
2023/05/15 01:11:46;;;;;;;12.60;9.00;;;;;;;;;;5036158;28;20387;-43
2023/05/15 01:14:12;;;;;;;9.63;8.33;;;;;;;;;;5028584;28;20417;-44
2023/05/15 01:16:38;;;;;;;9.70;7.63;;;;;;;;;;5040735;28;20427;-43
2023/05/15 01:19:04;;;;;;;10.10;8.17;;;;;;;;;;5040428;28;20485;-44
2023/05/15 01:21:36;;;;;;;10.47;9.37;;;;;;;;;;5044661;28;20903;-43
2023/05/15 01:24:15;;;;;;;9.77;7.77;;;;;;;;;;5040281;28;20467;-44
2023/05/15 01:26:57;;;;;;;7.33;6.60;;;;;;;;;;5036998;28;20400;-44
2023/05/15 01:29:38;;;;;;;9.03;7.63;;;;;;;;;;5035374;28;20410;-43
2023/05/15 01:32:08;;;;;;;11.90;7.43;;;;;;;;;;5041426;28;20582;-44
2023/05/15 01:34:54;;;;;;;8.53;7.63;;;;;;;;;;5044100;28;20407;-43
2023/05/15 01:37:23;;;;;;;8.20;7.00;;;;;;;;;;5002228;28;20909;-44
2023/05/15 01:39:50;;;;;;;8.30;7.47;;;;;;;;;;5045687;28;20460;-43
2023/05/15 01:42:17;;;;;;;8.67;7.77;;;;;;;;;;5030123;28;20570;-44
2023/05/15 01:44:45;;;;;;;13.33;10.27;;;;;;;;;;5042520;28;20411;-43
2023/05/15 01:47:17;;;;;;;10.40;9.03;;;;;;;;;;5041090;28;20423;-43
2023/05/15 01:49:44;;;;;;;12.70;9.30;;;;;;;;;;5041808;28;20398;-43
2023/05/15 01:52:14;;;;;;;11.37;8.93;;;;;;;;;;5041082;28;20406;-44
2023/05/15 01:54:40;;;;;;;11.10;10.00;;;;;;;;;;5036812;28;20822;-43
2023/05/15 01:57:06;;;;;;;15.17;10.00;;;;;;;;;;5035582;28;20411;-44
2023/05/15 01:59:32;;;;;;;10.53;9.00;;;;;;;;;;5041247;28;20455;-43
2023/05/15 02:01:59;;;;;;;10.67;8.83;;;;;;;;;;5044709;28;20516;-43
2023/05/15 02:04:25;;;;;;;13.73;9.30;;;;;;;;;;5029611;28;20410;-43
2023/05/15 02:06:52;;;;;;;10.67;9.17;;;;;;;;;;5041302;28;20416;-44
2023/05/15 02:09:20;;;;;;;15.27;9.27;;;;;;;;;;5041919;28;20417;-43
2023/05/15 02:11:46;;;;;;;10.70;8.03;;;;;;;;;;5035958;28;20416;-43
2023/05/15 02:14:14;;;;;;;12.33;10.27;;;;;;;;;;5042812;28;20743;-43
2023/05/15 02:16:40;;;;;;;15.60;11.33;;;;;;;;;;5037915;28;20438;-43
2023/05/15 02:19:06;;;;;;;15.90;10.27;;;;;;;;;;5042083;28;20413;-43
2023/05/15 02:21:32;;;;;;;18.80;14.70;;;;;;;;;;5034323;28;20493;-43
2023/05/15 02:23:58;;;;;;;14.63;11.07;;;;;;;;;;5031054;28;20969;-43
2023/05/15 02:26:39;;;;;;;17.03;11.90;;;;;;;;;;5044377;28;20392;-44
2023/05/15 02:29:20;;;;;;;14.43;11.37;;;;;;;;;;5040495;28;20448;-44
2023/05/15 02:31:59;;;;;;;13.17;10.97;;;;;;;;;;5038193;28;20521;-43
2023/05/15 02:34:27;;;;;;;13.50;11.23;;;;;;;;;;5032634;28;20382;-44
2023/05/15 02:36:54;;;;;;;13.53;10.13;;;;;;;;;;5037105;28;20414;-43
2023/05/15 02:39:22;;;;;;;15.07;11.50;;;;;;;;;;5035414;28;20412;-44
2023/05/15 02:41:49;;;;;;;16.33;11.30;;;;;;;;;;5040019;28;20497;-43
2023/05/15 02:44:17;;;;;;;12.97;11.40;;;;;;;;;;5045066;28;20414;-43
2023/05/15 02:46:43;;;;;;;19.27;11.87;;;;;;;;;;5043897;28;20543;-44
2023/05/15 02:49:09;;;;;;;22.33;12.30;;;;;;;;;;5034052;28;20415;-44
2023/05/15 02:51:36;;;;;;;21.50;15.83;;;;;;;;;;5035877;28;20425;-43
2023/05/15 02:54:02;;;;;;;17.07;12.90;;;;;;;;;;5041681;28;20438;-43
2023/05/15 02:56:28;;;;;;;17.13;12.60;;;;;;;;;;5044496;28;20458;-43
2023/05/15 02:58:54;;;;;;;21.50;12.13;;;;;;;;;;5040919;28;20825;-42
2023/05/15 03:01:20;;;;;;;15.20;11.90;;;;;;;;;;5041343;28;20466;-43
2023/05/15 03:03:47;;;;;;;19.03;13.37;;;;;;;;;;5036674;28;20437;-43
2023/05/15 03:06:12;;;;;;;15.10;10.77;;;;;;;;;;5030530;28;20953;-43
2023/05/15 03:08:39;;;;;;;11.90;9.97;;;;;;;;;;5051880;28;20445;-43
2023/05/15 03:11:05;;;;;;;18.73;9.77;;;;;;;;;;5040291;28;20425;-43
2023/05/15 03:13:31;;;;;;;13.00;10.10;;;;;;;;;;5043317;28;20934;-44
2023/05/15 03:15:57;;;;;;;10.63;8.17;;;;;;;;;;5036829;28;20439;-42
2023/05/15 03:18:23;;;;;;;9.37;8.40;;;;;;;;;;5034844;28;20434;-43
2023/05/15 03:20:49;;;;;;;8.90;8.00;;;;;;;;;;5037212;28;20448;-44
2023/05/15 03:23:15;;;;;;;9.90;7.63;;;;;;;;;;5040663;28;20488;-43
2023/05/15 03:25:41;;;;;;;9.17;8.27;;;;;;;;;;5042746;28;20493;-43
2023/05/15 03:28:07;;;;;;;16.43;9.63;;;;;;;;;;5036837;28;20422;-44
2023/05/15 03:30:33;;;;;;;13.43;10.37;;;;;;;;;;5034085;28;20436;-43
2023/05/15 03:33:02;;;;;;;23.70;11.87;;;;;;;;;;5036310;28;20991;-43
2023/05/15 03:35:28;;;;;;;30.50;16.60;;;;;;;;;;5034639;28;20973;-43
2023/05/15 03:37:54;;;;;;;29.97;16.10;;;;;;;;;;5040143;28;20512;-43
2023/05/15 03:40:20;;;;;;;26.37;14.40;;;;;;;;;;5044922;28;20694;-43
2023/05/15 03:42:46;;;;;;;32.00;15.87;;;;;;;;;;5039170;28;20520;-44
2023/05/15 03:45:12;;;;;;;23.53;13.07;;;;;;;;;;5043648;28;20415;-43
2023/05/15 03:47:38;;;;;;;33.57;16.37;;;;;;;;;;5044550;28;20410;-43
2023/05/15 03:50:04;;;;;;;27.93;14.63;;;;;;;;;;5033207;28;20415;-43
2023/05/15 03:52:30;;;;;;;30.30;17.57;;;;;;;;;;5029134;28;20544;-43
2023/05/15 03:54:56;;;;;;;28.10;14.40;;;;;;;;;;5033649;28;20424;-44
2023/05/15 03:57:22;;;;;;;25.13;14.80;;;;;;;;;;5033099;28;20438;-43
2023/05/15 03:59:48;;;;;;;27.63;15.70;;;;;;;;;;5036953;28;20474;-43
2023/05/15 04:02:14;;;;;;;23.67;14.27;;;;;;;;;;5042464;28;20468;-43
2023/05/15 04:04:40;;;;;;;20.27;14.03;;;;;;;;;;5041704;28;20407;-43
2023/05/15 04:07:06;;;;;;;22.27;14.93;;;;;;;;;;5036276;28;20513;-44
2023/05/15 04:09:32;;;;;;;26.57;15.53;;;;;;;;;;5040655;28;20406;-44
2023/05/15 04:11:58;;;;;;;30.17;15.53;;;;;;;;;;5035422;28;20433;-43
2023/05/15 04:14:24;;;;;;;26.60;14.20;;;;;;;;;;5038207;28;20508;-43
2023/05/15 04:16:50;;;;;;;23.20;14.30;;;;;;;;;;5035286;28;20417;-43
2023/05/15 04:19:16;;;;;;;35.60;17.67;;;;;;;;;;5036774;28;20425;-43
2023/05/15 04:21:42;;;;;;;27.50;17.20;;;;;;;;;;5038072;28;20827;-43
2023/05/15 04:24:08;;;;;;;35.40;17.87;;;;;;;;;;5033861;28;20409;-44
2023/05/15 04:26:34;;;;;;;37.03;19.63;;;;;;;;;;5036896;28;20452;-44
2023/05/15 04:29:00;;;;;;;41.70;18.50;;;;;;;;;;5039522;28;20369;-43
2023/05/15 04:31:26;;;;;;;37.70;22.30;;;;;;;;;;5035083;28;20746;-43
2023/05/15 04:33:52;;;;;;;40.80;19.63;;;;;;;;;;5042382;28;20435;-43
2023/05/15 04:36:18;;;;;;;47.53;23.13;;;;;;;;;;5045581;28;20469;-44
2023/05/15 04:38:45;;;;;;;47.20;22.80;;;;;;;;;;5040399;28;20422;-44
2023/05/15 04:41:11;;;;;;;55.00;27.13;;;;;;;;;;5033928;28;20467;-43
2023/05/15 04:43:37;;;;;;;57.10;27.20;;;;;;;;;;5036342;28;20870;-43
2023/05/15 04:46:03;;;;;;;57.00;28.77;;;;;;;;;;5039939;28;20408;-43
2023/05/15 04:48:29;;;;;;;72.27;31.40;;;;;;;;;;5047518;28;20883;-44
2023/05/15 04:50:55;;;;;;;70.33;32.80;;;;;;;;;;5032065;28;20413;-44
2023/05/15 04:53:21;;;;;;;65.67;33.70;;;;;;;;;;5041343;28;20431;-43
2023/05/15 04:55:50;;;;;;;68.53;34.37;;;;;;;;;;5043427;28;20413;-44
2023/05/15 04:58:16;;;;;;;71.47;33.00;;;;;;;;;;5030882;28;20506;-44
2023/05/15 05:00:42;;;;;;;75.20;35.70;;;;;;;;;;5045241;28;20468;-44
2023/05/15 05:03:08;;;;;;;83.97;39.77;;;;;;;;;;5039929;28;20492;-44
2023/05/15 05:05:34;;;;;;;76.87;36.57;;;;;;;;;;5044323;28;20432;-44
2023/05/15 05:08:00;;;;;;;81.93;34.80;;;;;;;;;;5039901;28;20455;-43
2023/05/15 05:10:26;;;;;;;71.63;33.47;;;;;;;;;;5038552;28;20498;-44
2023/05/15 05:12:52;;;;;;;73.97;35.23;;;;;;;;;;5033923;28;20844;-44
2023/05/15 05:15:18;;;;;;;62.43;31.80;;;;;;;;;;5042912;28;20566;-44
2023/05/15 05:17:44;;;;;;;67.03;31.60;;;;;;;;;;5042347;28;20788;-43
2023/05/15 05:20:10;;;;;;;73.60;34.53;;;;;;;;;;5035359;28;20432;-43
2023/05/15 05:22:37;;;;;;;71.23;35.83;;;;;;;;;;5020285;28;20430;-44
2023/05/15 05:25:03;;;;;;;73.37;33.67;;;;;;;;;;5049091;28;20452;-44
2023/05/15 05:27:29;;;;;;;72.50;35.30;;;;;;;;;;5042056;28;20536;-44
2023/05/15 05:29:55;;;;;;;66.43;34.73;;;;;;;;;;5038682;28;20892;-44
2023/05/15 05:32:21;;;;;;;70.97;36.00;;;;;;;;;;5043182;28;20435;-44
2023/05/15 05:34:47;;;;;;;64.37;36.00;;;;;;;;;;5035382;28;20406;-44
2023/05/15 05:37:13;;;;;;;68.50;35.50;;;;;;;;;;5035280;28;20422;-43
2023/05/15 05:39:39;;;;;;;71.63;36.23;;;;;;;;;;5040683;28;20512;-44
2023/05/15 05:42:05;;;;;;;66.90;33.03;;;;;;;;;;5044310;28;20482;-44
2023/05/15 05:44:31;;;;;;;72.83;33.33;;;;;;;;;;5036744;28;20455;-44
2023/05/15 05:46:57;;;;;;;60.00;31.10;;;;;;;;;;5035468;28;20436;-43
2023/05/15 05:49:23;;;;;;;65.40;35.40;;;;;;;;;;5036127;28;20406;-44
2023/05/15 05:51:48;;;;;;;58.77;33.90;;;;;;;;;;5037199;28;20506;-44
2023/05/15 05:54:16;;;;;;;57.47;30.23;;;;;;;;;;5043667;28;20390;-44
2023/05/15 05:56:43;;;;;;;55.37;28.73;;;;;;;;;;5043656;28;20413;-44
2023/05/15 05:59:09;;;;;;;61.27;32.90;;;;;;;;;;5040261;28;20402;-44
2023/05/15 06:01:35;;;;;;;65.83;38.23;;;;;;;;;;5027275;28;20538;-44
2023/05/15 06:04:01;;;;;;;52.07;30.70;;;;;;;;;;5039941;28;20428;-44
2023/05/15 06:06:27;;;;;;;54.40;31.87;;;;;;;;;;5030617;28;20794;-44
2023/05/15 06:08:53;;;;;;;55.70;31.97;;;;;;;;;;5044401;28;20405;-44
2023/05/15 06:11:20;;;;;;;56.57;32.10;;;;;;;;;;5039251;28;20428;-44
2023/05/15 06:13:46;;;;;;;56.77;33.93;;;;;;;;;;5039316;28;20448;-43
2023/05/15 06:16:12;;;;;;;61.60;34.10;;;;;;;;;;5004872;28;1064147;-44
2023/05/15 06:18:38;;;;;;;53.40;30.77;;;;;;;;;;5042328;28;20638;-44
2023/05/15 06:21:04;;;;;;;57.10;35.17;;;;;;;;;;5037095;28;20923;-44
2023/05/15 06:23:30;;;;;;;53.03;32.93;;;;;;;;;;5040385;28;20450;-44
2023/05/15 06:25:56;;;;;;;57.23;34.10;;;;;;;;;;5029361;28;20431;-44
2023/05/15 06:28:22;;;;;;;63.53;34.97;;;;;;;;;;5041373;28;20907;-44
2023/05/15 06:30:48;;;;;;;65.20;34.93;;;;;;;;;;5042126;28;20460;-44
2023/05/15 06:33:14;;;;;;;65.23;36.80;;;;;;;;;;5038813;28;20462;-44
2023/05/15 06:35:40;;;;;;;69.30;36.20;;;;;;;;;;5040711;28;20416;-43
2023/05/15 06:38:06;;;;;;;70.87;38.00;;;;;;;;;;5043209;28;20438;-44
2023/05/15 06:40:32;;;;;;;68.17;37.47;;;;;;;;;;5046693;28;20452;-43
2023/05/15 06:42:58;;;;;;;74.30;38.33;;;;;;;;;;5043957;28;20479;-43
2023/05/15 06:45:24;;;;;;;71.13;38.50;;;;;;;;;;5033283;28;20887;-44
2023/05/15 06:47:50;;;;;;;70.80;38.37;;;;;;;;;;5032780;28;20892;-43
2023/05/15 06:50:15;;;;;;;79.00;39.97;;;;;;;;;;5041009;28;20923;-44
2023/05/15 06:52:41;;;;;;;72.87;40.37;;;;;;;;;;5043864;28;20404;-43
2023/05/15 06:55:08;;;;;;;76.00;40.73;;;;;;;;;;5042553;28;20394;-44
2023/05/15 06:57:33;;;;;;;84.90;42.90;;;;;;;;;;5040657;28;20919;-44
2023/05/15 07:00:00;;;;;;;87.10;42.80;;;;;;;;;;5033834;28;20460;-43
2023/05/15 07:02:25;;;;;;;86.70;45.97;;;;;;;;;;5037010;28;20438;-44
2023/05/15 07:04:51;;;;;;;89.37;45.57;;;;;;;;;;5044189;28;20754;-44
2023/05/15 07:07:17;;;;;;;94.70;47.43;;;;;;;;;;5040490;28;20819;-43
2023/05/15 07:09:47;;;;;;;87.40;45.80;;;;;;;;;;5038407;28;20435;-43
2023/05/15 07:12:13;;;;;;;96.87;44.20;;;;;;;;;;5040424;28;20439;-44
2023/05/15 07:14:39;;;;;;;84.33;45.00;;;;;;;;;;5036611;28;20907;-44
2023/05/15 07:17:05;;;;;;;93.10;45.70;;;;;;;;;;5035464;28;20451;-43
2023/05/15 07:19:31;;;;;;;89.63;45.50;;;;;;;;;;5040419;28;20460;-44
2023/05/15 07:21:57;;;;;;;95.07;46.07;;;;;;;;;;5044969;28;20437;-44
2023/05/15 07:24:26;;;;;;;95.40;46.90;;;;;;;;;;5037457;28;20937;-44
2023/05/15 07:26:54;;;;;;;94.07;47.70;;;;;;;;;;5038766;28;20387;-42
2023/05/15 07:29:20;;;;;;;97.33;46.67;;;;;;;;;;5033779;28;20482;-43
2023/05/15 07:31:46;;;;;;;94.73;43.73;;;;;;;;;;5031879;28;20457;-42
2023/05/15 07:34:12;;;;;;;97.47;46.40;;;;;;;;;;5043648;28;20474;-42
2023/05/15 07:36:38;;;;;;;109.17;49.93;;;;;;;;;;5041821;28;20416;-43
2023/05/15 07:39:04;;;;;;;102.27;45.97;;;;;;;;;;5041428;28;20389;-42
2023/05/15 07:41:32;;;;;;;102.57;49.13;;;;;;;;;;5033917;28;20441;-42
2023/05/15 07:43:58;;;;;;;103.50;49.03;;;;;;;;;;5030828;28;20794;-42
2023/05/15 07:46:24;;;;;;;112.00;47.87;;;;;;;;;;5043632;28;20370;-42
2023/05/15 07:48:50;;;;;;;107.40;47.53;;;;;;;;;;5040891;28;20388;-42
2023/05/15 07:51:16;;;;;;;106.63;47.90;;;;;;;;;;5039511;28;20415;-42
2023/05/15 07:53:42;;;;;;;89.13;45.07;;;;;;;;;;5034755;28;20438;-43
2023/05/15 07:56:08;;;;;;;95.20;49.40;;;;;;;;;;5029935;28;20514;-42
2023/05/15 07:58:37;;;;;;;96.07;46.30;;;;;;;;;;5043287;28;20391;-42
2023/05/15 08:01:03;;;;;;;95.10;46.93;;;;;;;;;;5037302;28;20956;-44
2023/05/15 08:03:29;;;;;;;98.37;47.67;;;;;;;;;;5042679;28;20706;-42
2023/05/15 08:05:54;;;;;;;86.27;42.63;;;;;;;;;;5037079;28;20421;-42
2023/05/15 08:08:21;;;;;;;73.77;41.27;;;;;;;;;;5037776;28;20443;-42
2023/05/15 08:10:47;;;;;;;70.17;38.03;;;;;;;;;;5033084;28;20480;-42
2023/05/15 08:13:13;;;;;;;74.23;40.47;;;;;;;;;;5028968;28;20449;-42
2023/05/15 08:15:39;;;;;;;61.90;35.87;;;;;;;;;;5030410;28;20418;-43
2023/05/15 08:18:09;;;;;;;60.13;36.17;;;;;;;;;;5038479;28;20449;-42
2023/05/15 08:20:35;;;;;;;59.00;33.57;;;;;;;;;;5038017;28;20795;-42
2023/05/15 08:23:01;;;;;;;46.40;30.47;;;;;;;;;;5042613;28;20920;-42
2023/05/15 08:25:27;;;;;;;80.63;39.30;;;;;;;;;;5030966;28;20433;-42
2023/05/15 08:27:53;;;;;;;69.47;39.80;;;;;;;;;;5038830;28;20393;-43
2023/05/15 08:30:19;;;;;;;64.27;35.20;;;;;;;;;;5038907;28;20408;-43
2023/05/15 08:32:45;;;;;;;47.17;30.30;;;;;;;;;;5038426;28;20468;-43
2023/05/15 08:35:11;;;;;;;40.83;29.13;;;;;;;;;;5031209;28;20411;-43
2023/05/15 08:37:37;;;;;;;40.00;27.40;;;;;;;;;;5034163;28;20416;-43
2023/05/15 08:40:04;;;;;;;40.73;29.37;;;;;;;;;;5036316;28;20861;-43
2023/05/15 08:42:32;;;;;;;45.30;31.27;;;;;;;;;;5042553;28;20445;-43
2023/05/15 08:44:59;;;;;;;48.57;32.20;;;;;;;;;;5038069;28;20413;-43
2023/05/15 08:47:28;;;;;;;51.37;32.63;;;;;;;;;;5031566;28;20555;-43
2023/05/15 08:50:10;;;;;;;46.30;30.20;;;;;;;;;;5035589;28;20448;-43
2023/05/15 08:52:37;;;;;;;42.83;29.63;;;;;;;;;;5022744;28;20437;-44
2023/05/15 08:55:04;;;;;;;42.57;31.23;;;;;;;;;;5041585;28;20484;-45
2023/05/15 08:57:32;;;;;;;54.50;35.60;;;;;;;;;;5039019;28;20488;-43
2023/05/15 08:59:58;;;;;;;45.47;32.97;;;;;;;;;;5034948;28;20458;-45
2023/05/15 09:02:25;;;;;;;42.43;31.30;;;;;;;;;;5030650;28;20448;-43
2023/05/15 09:04:51;;;;;;;38.43;27.40;;;;;;;;;;5032970;28;20665;-44
2023/05/15 09:07:17;;;;;;;37.80;24.63;;;;;;;;;;5035752;28;20402;-43
2023/05/15 09:09:44;;;;;;;24.30;18.67;;;;;;;;;;5043493;28;20493;-43
2023/05/15 09:12:10;;;;;;;20.27;17.20;;;;;;;;;;5042122;28;20457;-43
2023/05/15 09:14:36;;;;;;;21.87;17.10;;;;;;;;;;5039411;28;20848;-43
2023/05/15 09:17:02;;;;;;;17.67;15.87;;;;;;;;;;5035267;28;20866;-43
2023/05/15 09:19:29;;;;;;;16.73;13.40;;;;;;;;;;5043562;28;20771;-44
2023/05/15 09:21:55;;;;;;;14.67;13.20;;;;;;;;;;5042004;28;20424;-43
2023/05/15 09:24:22;;;;;;;12.57;11.33;;;;;;;;;;5045683;28;21128;-45
2023/05/15 09:27:02;;;;;;;14.60;11.87;;;;;;;;;;5044086;28;20436;-43
2023/05/15 09:29:29;;;;;;;15.13;13.03;;;;;;;;;;5034895;28;20460;-43
2023/05/15 09:31:55;;;;;;;14.43;11.40;;;;;;;;;;5041048;28;20928;-43
2023/05/15 09:34:31;;;;;;;12.80;11.63;;;;;;;;;;5035518;28;20832;-44
2023/05/15 09:36:58;;;;;;;16.47;12.13;;;;;;;;;;5045939;28;20492;-46
2023/05/15 09:39:24;;;;;;;17.30;13.23;;;;;;;;;;5042453;28;20484;-44
2023/05/15 09:41:50;;;;;;;15.53;12.00;;;;;;;;;;5040756;28;20456;-44
2023/05/15 09:44:26;;;;;;;20.50;12.43;;;;;;;;;;5049735;28;20409;-45
2023/05/15 09:46:52;;;;;;;16.67;13.80;;;;;;;;;;5038095;28;20408;-43
2023/05/15 09:49:19;;;;;;;16.93;12.40;;;;;;;;;;5037188;28;20420;-43
2023/05/15 09:51:45;;;;;;;20.57;12.87;;;;;;;;;;5041489;28;20445;-43
2023/05/15 09:54:18;;;;;;;13.70;12.30;;;;;;;;;;5047441;28;20808;-43
2023/05/15 09:56:45;;;;;;;19.03;13.17;;;;;;;;;;5035204;28;20411;-43
2023/05/15 09:59:15;;;;;;;14.83;12.50;;;;;;;;;;5027055;28;20453;-45
2023/05/15 10:01:44;;;;;;;14.50;13.20;;;;;;;;;;5014502;28;20462;-43
2023/05/15 10:04:11;;;;;;;19.80;14.00;;;;;;;;;;5013898;28;20450;-43
2023/05/15 10:06:38;;;;;;;15.93;13.40;;;;;;;;;;5015177;28;20461;-43
2023/05/15 10:09:05;;;;;;;16.47;12.70;;;;;;;;;;5015856;28;20412;-43
2023/05/15 10:11:33;;;;;;;15.23;13.57;;;;;;;;;;5013369;28;20945;-43
2023/05/15 10:13:59;;;;;;;13.67;10.10;;;;;;;;;;5012838;28;20439;-44
2023/05/15 10:16:27;;;;;;;17.40;12.30;;;;;;;;;;5013679;28;20428;-43
2023/05/15 10:18:53;;;;;;;17.70;11.50;;;;;;;;;;5013282;28;20403;-45
2023/05/15 10:21:19;;;;;;;13.33;11.43;;;;;;;;;;5012953;28;20986;-43
2023/05/15 10:23:47;;;;;;;13.80;10.80;;;;;;;;;;5012271;28;20505;-43
2023/05/15 10:26:16;;;;;;;21.60;12.40;;;;;;;;;;5014875;28;20880;-43
2023/05/15 10:28:43;;;;;;;16.77;11.33;;;;;;;;;;5026738;28;20446;-45
2023/05/15 10:31:09;;;;;;;13.53;12.13;;;;;;;;;;5023329;28;20417;-43
2023/05/15 10:33:36;;;;;;;12.67;11.10;;;;;;;;;;5015829;28;20822;-43
2023/05/15 10:36:03;;;;;;;18.50;11.90;;;;;;;;;;5045628;28;20440;-45
2023/05/15 10:38:30;;;;;;;15.20;11.17;;;;;;;;;;5039146;28;20420;-43
2023/05/15 10:40:58;;;;;;;14.27;10.93;;;;;;;;;;5035892;28;20463;-43
2023/05/15 10:43:24;;;;;;;12.60;10.67;;;;;;;;;;5039979;28;20422;-46
2023/05/15 10:45:51;;;;;;;11.97;10.17;;;;;;;;;;5036792;28;20406;-46
2023/05/15 10:48:18;;;;;;;14.47;9.97;;;;;;;;;;5031583;28;20512;-45
2023/05/15 10:50:44;;;;;;;11.40;10.30;;;;;;;;;;5039487;28;20814;-46
2023/05/15 10:53:10;;;;;;;11.20;10.00;;;;;;;;;;5035204;28;20477;-45
2023/05/15 10:55:38;;;;;;;16.67;10.20;;;;;;;;;;5031565;28;20754;-45
2023/05/15 10:58:10;;;;;;;10.00;9.00;;;;;;;;;;5035071;28;20431;-45
2023/05/15 11:00:43;;;;;;;10.50;8.30;;;;;;;;;;5034581;28;20469;-43
2023/05/15 11:03:12;;;;;;;8.80;7.90;;;;;;;;;;5034719;28;20821;-43
2023/05/15 11:05:57;;;;;;;9.63;8.10;;;;;;;;;;5036251;28;21007;-44
2023/05/15 11:08:24;;;;;;;13.50;8.00;;;;;;;;;;5048825;28;20398;-43
2023/05/15 11:10:51;;;;;;;9.10;8.13;;;;;;;;;;5036036;28;20914;-43
2023/05/15 11:13:17;;;;;;;10.20;8.43;;;;;;;;;;5031061;28;20438;-44
2023/05/15 11:15:44;;;;;;;8.37;7.67;;;;;;;;;;5030307;28;20424;-43
2023/05/15 11:18:10;;;;;;;16.53;7.73;;;;;;;;;;5040941;28;20194;-44
2023/05/15 11:20:40;;;;;;;10.50;7.03;;;;;;;;;;5033452;28;20980;-44
2023/05/15 11:23:06;;;;;;;10.57;7.17;;;;;;;;;;5025560;28;20431;-44
2023/05/15 11:25:33;;;;;;;6.40;5.80;;;;;;;;;;5014880;28;20392;-44
2023/05/15 11:27:59;;;;;;;6.50;5.33;;;;;;;;;;5032082;28;20405;-45
2023/05/15 11:30:38;;;;;;;6.93;5.40;;;;;;;;;;5030990;28;20410;-43
2023/05/15 11:33:07;;;;;;;8.90;6.53;;;;;;;;;;5012792;28;20438;-44
2023/05/15 11:35:47;;;;;;;6.43;5.13;;;;;;;;;;5031824;28;20492;-44
2023/05/15 11:38:17;;;;;;;5.03;4.63;;;;;;;;;;5015876;28;20448;-44
2023/05/15 11:40:51;;;;;;;6.23;4.93;;;;;;;;;;5024474;28;20855;-45
2023/05/15 11:43:21;;;;;;;7.50;4.20;;;;;;;;;;5030881;28;20438;-43
2023/05/15 11:45:49;;;;;;;6.10;4.50;;;;;;;;;;5031690;28;20402;-44
2023/05/15 11:48:16;;;;;;;6.83;4.40;;;;;;;;;;5031802;28;20628;-44
2023/05/15 11:50:42;;;;;;;5.23;4.70;;;;;;;;;;5031561;28;20468;-44
2023/05/15 11:53:09;;;;;;;5.87;5.00;;;;;;;;;;5030879;28;20930;-44
2023/05/15 11:55:37;;;;;;;8.47;5.00;;;;;;;;;;5031487;28;20760;-44
2023/05/15 11:58:03;;;;;;;4.90;4.40;;;;;;;;;;5032104;28;20928;-44
2023/05/15 12:00:29;;;;;;;5.90;5.30;;;;;;;;;;5031462;28;20461;-45
2023/05/15 12:02:55;;;;;;;7.67;5.57;;;;;;;;;;5030694;28;20430;-44
2023/05/15 12:05:22;;;;;;;5.00;4.10;;;;;;;;;;5016293;28;20981;-44
2023/05/15 12:07:48;;;;;;;4.63;4.27;;;;;;;;;;5023010;28;20415;-44
2023/05/15 12:10:14;;;;;;;6.60;4.10;;;;;;;;;;5011891;28;20431;-44
2023/05/15 12:12:40;;;;;;;5.80;4.60;;;;;;;;;;5010943;28;20454;-44
2023/05/15 12:15:10;;;;;;;9.07;4.10;;;;;;;;;;5011393;28;20427;-44
2023/05/15 12:17:37;;;;;;;5.57;4.87;;;;;;;;;;5025681;28;20898;-44
2023/05/15 12:20:03;;;;;;;7.23;4.23;;;;;;;;;;5011256;28;20454;-44
2023/05/15 12:22:35;;;;;;;6.50;5.60;;;;;;;;;;5011113;28;20435;-43
2023/05/15 12:25:01;;;;;;;5.37;4.60;;;;;;;;;;5011287;28;20407;-44
2023/05/15 12:27:27;;;;;;;9.73;4.67;;;;;;;;;;5011554;28;20414;-44
2023/05/15 12:29:53;;;;;;;10.30;5.30;;;;;;;;;;5011356;28;20407;-44
2023/05/15 12:32:19;;;;;;;7.27;5.40;;;;;;;;;;5011634;28;20426;-45
2023/05/15 12:34:46;;;;;;;6.53;5.50;;;;;;;;;;5011854;28;20431;-43
2023/05/15 12:37:12;;;;;;;4.90;4.50;;;;;;;;;;5020729;28;20914;-43
2023/05/15 12:40:10;;;;;;;5.20;4.53;;;;;;;;;;5018275;28;20789;-44
2023/05/15 12:42:43;;;;;;;4.30;3.90;;;;;;;;;;5024736;28;20865;-44
2023/05/15 12:45:16;;;;;;;6.63;4.20;;;;;;;;;;5018707;28;20425;-44
2023/05/15 12:47:42;;;;;;;4.23;3.90;;;;;;;;;;5011491;28;20957;-44
2023/05/15 12:50:16;;;;;;;5.10;4.37;;;;;;;;;;5014431;28;20907;-44
2023/05/15 12:52:51;;;;;;;5.20;4.70;;;;;;;;;;5014375;28;20470;-44
2023/05/15 12:55:18;;;;;;;6.03;4.67;;;;;;;;;;5034763;28;20780;-45
2023/05/15 12:57:44;;;;;;;5.53;4.00;;;;;;;;;;5045506;28;20463;-45
2023/05/15 13:00:11;;;;;;;5.33;4.13;;;;;;;;;;5042445;28;20457;-44
2023/05/15 13:02:37;;;;;;;3.50;3.20;;;;;;;;;;5040235;28;20929;-44
2023/05/15 13:05:06;;;;;;;5.60;4.07;;;;;;;;;;5043189;28;20433;-44
2023/05/15 13:07:33;;;;;;;5.83;3.20;;;;;;;;;;5041368;28;20443;-44
2023/05/15 13:10:04;;;;;;;3.60;3.30;;;;;;;;;;5045233;28;20508;-46
2023/05/15 13:12:44;;;;;;;6.43;3.90;;;;;;;;;;5041257;28;20932;-44
2023/05/15 13:15:22;;;;;;;4.03;3.70;;;;;;;;;;5037554;28;20441;-44
2023/05/15 13:17:48;;;;;;;4.17;3.87;;;;;;;;;;5037666;28;20414;-45
2023/05/15 13:20:14;;;;;;;4.20;3.80;;;;;;;;;;5040649;28;20468;-44
2023/05/15 13:22:39;;;;;;;5.63;4.50;;;;;;;;;;5035850;28;20418;-44
2023/05/15 13:25:06;;;;;;;4.23;3.93;;;;;;;;;;5042689;28;20406;-44
2023/05/15 13:27:32;;;;;;;4.87;3.80;;;;;;;;;;5044926;28;20519;-44
2023/05/15 13:29:58;;;;;;;4.30;3.90;;;;;;;;;;5042180;28;20420;-44
2023/05/15 13:32:24;;;;;;;4.97;4.50;;;;;;;;;;5033422;28;20243;-44
2023/05/15 13:34:53;;;;;;;5.50;5.00;;;;;;;;;;5031903;28;20172;-45
2023/05/15 13:37:19;;;;;;;5.43;4.97;;;;;;;;;;5042367;28;20843;-43
2023/05/15 13:39:45;;;;;;;4.77;4.13;;;;;;;;;;5044450;28;20408;-44
2023/05/15 13:42:11;;;;;;;4.97;4.47;;;;;;;;;;5041686;28;20426;-43
2023/05/15 13:44:37;;;;;;;5.07;4.67;;;;;;;;;;5040538;28;20215;-43
2023/05/15 13:47:03;;;;;;;4.20;3.90;;;;;;;;;;5039024;28;20417;-44
2023/05/15 13:49:30;;;;;;;5.73;4.80;;;;;;;;;;5038811;28;20406;-43
2023/05/15 13:51:56;;;;;;;5.07;4.63;;;;;;;;;;5044112;28;20786;-43
2023/05/15 13:54:22;;;;;;;6.27;4.50;;;;;;;;;;5035154;28;20939;-43
2023/05/15 13:56:48;;;;;;;4.93;4.53;;;;;;;;;;5037573;28;20449;-43
2023/05/15 13:59:14;;;;;;;4.73;4.33;;;;;;;;;;5042496;28;20410;-43
2023/05/15 14:01:40;;;;;;;5.97;4.37;;;;;;;;;;5035774;28;20954;-43
2023/05/15 14:04:06;;;;;;;5.53;3.70;;;;;;;;;;5027172;28;20436;-44
2023/05/15 14:06:32;;;;;;;4.50;3.90;;;;;;;;;;5047416;28;20453;-46
2023/05/15 14:08:58;;;;;;;4.93;4.03;;;;;;;;;;5041717;28;20417;-43
2023/05/15 14:11:24;;;;;;;5.23;3.90;;;;;;;;;;5028663;28;20409;-43
2023/05/15 14:13:50;;;;;;;5.47;3.87;;;;;;;;;;5036288;28;20434;-44
2023/05/15 14:16:15;;;;;;;6.47;4.23;;;;;;;;;;5040076;28;20800;-44
2023/05/15 14:18:41;;;;;;;4.13;3.43;;;;;;;;;;5036090;28;20786;-44
2023/05/15 14:21:07;;;;;;;4.37;3.53;;;;;;;;;;5041836;28;20974;-44
2023/05/15 14:23:33;;;;;;;4.73;3.80;;;;;;;;;;5043332;28;20811;-44
2023/05/15 14:25:59;;;;;;;4.93;4.50;;;;;;;;;;5041804;28;20413;-44